createdAt,value
2023-04-20T00:00:13.994Z,44.65
2023-04-20T00:02:58.995Z,44.74
2023-04-20T00:05:43.681Z,44.38
2023-04-20T00:08:28.844Z,44.65
2023-04-20T00:11:13.676Z,44.82
2023-04-20T00:13:58.822Z,44.53
2023-04-20T00:16:43.950Z,44.16
2023-04-20T00:19:28.922Z,44.38
2023-04-20T00:25:17.031Z,44.63
2023-04-20T00:28:01.950Z,44.44
2023-04-20T00:30:46.983Z,45.12
2023-04-20T00:33:31.780Z,44.14
2023-04-20T00:36:16.792Z,44.54
2023-04-20T00:39:01.716Z,44.02
2023-04-20T00:41:46.856Z,45.59
2023-04-20T00:44:31.888Z,45.45
2023-04-20T00:47:16.800Z,45.44
2023-04-20T00:50:01.604Z,44.97
2023-04-20T00:52:46.582Z,44.94
2023-04-20T00:55:31.528Z,45.82
2023-04-20T00:58:16.497Z,44.90
2023-04-20T01:01:01.661Z,45.14
2023-04-20T01:03:46.919Z,45.26
2023-04-20T01:06:32.218Z,46.24
2023-04-20T01:09:17.371Z,45.41
2023-04-20T01:12:02.247Z,45.11
2023-04-20T01:14:47.124Z,45.33
2023-04-20T01:17:32.117Z,45.02
2023-04-20T01:20:17.203Z,45.38
2023-04-20T01:23:02.265Z,45.21
2023-04-20T01:25:47.289Z,45.29
2023-04-20T01:28:32.267Z,45.40
2023-04-20T01:31:17.367Z,44.77
2023-04-20T01:34:02.142Z,44.44
2023-04-20T01:36:47.111Z,45.15
2023-04-20T01:39:32.055Z,45.54
2023-04-20T01:42:16.890Z,44.36
2023-04-20T01:45:02.078Z,45.00
2023-04-20T01:47:47.111Z,46.46
2023-04-20T01:50:32.191Z,45.15
2023-04-20T01:53:17.110Z,43.88
2023-04-20T01:56:02.040Z,44.67
2023-04-20T01:58:47.047Z,45.96
2023-04-20T02:01:32.012Z,46.80
2023-04-20T02:04:17.195Z,46.35
2023-04-20T02:07:02.130Z,46.43
2023-04-20T02:09:47.287Z,46.85
2023-04-20T02:12:32.191Z,46.14
2023-04-20T02:15:17.231Z,45.99
2023-04-20T02:18:02.295Z,46.30
2023-04-20T02:20:47.267Z,45.61
2023-04-20T02:23:32.254Z,45.47
2023-04-20T02:26:17.195Z,47.10
2023-04-20T02:29:02.230Z,46.97
2023-04-20T02:31:47.264Z,47.01
2023-04-20T02:34:32.446Z,47.48
2023-04-20T02:37:17.397Z,47.84
2023-04-20T02:40:02.455Z,46.85
2023-04-20T02:42:47.417Z,47.14
2023-04-20T02:45:32.368Z,47.29
2023-04-20T02:48:17.422Z,48.18
2023-04-20T02:51:02.369Z,47.21
2023-04-20T02:53:47.358Z,47.47
2023-04-20T02:56:32.327Z,47.69
2023-04-20T02:59:17.662Z,48.47
2023-04-20T03:02:02.837Z,47.96
2023-04-20T03:04:47.933Z,48.29
2023-04-20T03:07:32.774Z,48.22
2023-04-20T03:10:17.859Z,47.92
2023-04-20T03:13:02.845Z,47.86
2023-04-20T03:15:47.718Z,47.78
2023-04-20T03:18:32.785Z,47.83
2023-04-20T03:21:17.648Z,48.39
2023-04-20T03:24:02.789Z,48.60
2023-04-20T03:26:47.635Z,48.98
2023-04-20T03:29:32.644Z,48.98
2023-04-20T03:32:17.661Z,48.48
2023-04-20T03:35:02.616Z,49.30
2023-04-20T03:37:47.695Z,49.81
2023-04-20T03:40:32.643Z,49.13
2023-04-20T03:43:17.816Z,49.46
2023-04-20T03:46:02.768Z,49.31
2023-04-20T03:48:47.654Z,48.80
2023-04-20T03:51:32.721Z,49.64
2023-04-20T03:54:17.777Z,49.84
2023-04-20T03:57:02.916Z,50.50
2023-04-20T03:59:47.900Z,50.26
2023-04-20T04:02:33.149Z,50.11
2023-04-20T04:05:18.417Z,50.29
2023-04-20T04:08:03.414Z,49.58
2023-04-20T04:10:48.314Z,49.11
2023-04-20T04:13:34.642Z,50.04
2023-04-20T04:16:19.813Z,49.12
2023-04-20T04:19:04.611Z,49.06
2023-04-20T04:21:49.743Z,49.08
2023-04-20T04:24:34.704Z,49.66
2023-04-20T04:27:19.779Z,50.14
2023-04-20T04:30:04.633Z,49.68
2023-04-20T04:32:49.611Z,49.29
2023-04-20T04:35:34.615Z,50.14
2023-04-20T04:38:19.590Z,49.55
2023-04-20T04:41:04.637Z,48.50
2023-04-20T04:43:49.574Z,48.99
2023-04-20T04:46:34.869Z,48.90
2023-04-20T04:49:19.871Z,47.88
2023-04-20T04:52:04.740Z,48.45
2023-04-20T04:54:49.704Z,48.61
2023-04-20T04:57:34.812Z,48.93
2023-04-20T05:00:19.792Z,48.54
2023-04-20T05:03:04.851Z,49.33
2023-04-20T05:05:49.897Z,48.53
2023-04-20T05:08:34.776Z,48.17
2023-04-20T05:11:19.753Z,48.46
2023-04-20T05:14:04.690Z,48.17
2023-04-20T05:16:49.788Z,48.81
2023-04-20T05:19:34.707Z,49.32
2023-04-20T05:22:19.807Z,49.52
2023-04-20T05:25:04.771Z,49.32
2023-04-20T05:27:49.691Z,51.00
2023-04-20T05:30:34.803Z,51.20
2023-04-20T05:33:19.785Z,51.43
2023-04-20T05:36:04.974Z,50.65
2023-04-20T05:38:50.049Z,51.03
2023-04-20T05:41:34.967Z,50.29
2023-04-20T05:44:20.110Z,50.22
2023-04-20T05:47:04.952Z,51.05
2023-04-20T05:49:50.078Z,51.54
2023-04-20T05:52:35.066Z,52.63
2023-04-20T05:55:22.199Z,52.49
2023-04-20T05:58:07.653Z,51.31
2023-04-20T06:00:52.724Z,50.50
2023-04-20T06:03:37.838Z,50.56
2023-04-20T06:06:22.688Z,50.53
2023-04-20T06:09:07.854Z,50.11
2023-04-20T06:11:52.641Z,48.62
2023-04-20T06:14:37.706Z,47.46
2023-04-20T06:17:22.879Z,48.09
2023-04-20T06:20:07.946Z,48.58
2023-04-20T06:22:52.950Z,50.09
2023-04-20T06:25:37.908Z,50.55
2023-04-20T06:28:22.925Z,50.78
2023-04-20T06:31:07.926Z,54.19
2023-04-20T06:33:53.057Z,55.88
2023-04-20T06:36:37.984Z,57.99
2023-04-20T06:39:23.059Z,57.96
2023-04-20T06:42:08.010Z,57.50
2023-04-20T06:44:52.937Z,57.00
2023-04-20T06:47:37.897Z,55.83
2023-04-20T06:50:22.661Z,54.58
2023-04-20T06:53:07.687Z,54.12
2023-04-20T06:55:52.487Z,57.67
2023-04-20T06:58:37.567Z,59.36
2023-04-20T07:01:22.577Z,61.36
2023-04-20T07:04:07.811Z,62.00
2023-04-20T07:06:54.363Z,60.57
2023-04-20T07:09:39.554Z,61.40
2023-04-20T07:12:24.548Z,60.28
2023-04-20T07:15:09.482Z,60.53
2023-04-20T07:17:54.653Z,58.91
2023-04-20T07:20:39.486Z,59.73
2023-04-20T07:23:24.598Z,59.13
2023-04-20T07:26:09.377Z,59.87
2023-04-20T07:28:54.323Z,58.71
2023-04-20T07:31:39.307Z,57.98
2023-04-20T07:34:24.078Z,57.77
2023-04-20T07:37:09.288Z,58.67
2023-04-20T07:39:54.278Z,59.95
2023-04-20T07:42:39.426Z,62.32
2023-04-20T07:45:24.442Z,62.95
2023-04-20T07:48:09.297Z,63.17
2023-04-20T07:50:54.194Z,62.31
2023-04-20T07:53:39.080Z,60.64
2023-04-20T07:56:24.114Z,60.72
2023-04-20T07:59:09.075Z,59.94
2023-04-20T08:01:56.286Z,59.17
2023-04-20T08:04:41.341Z,59.50
2023-04-20T08:07:26.559Z,59.46
2023-04-20T08:10:11.529Z,60.98
2023-04-20T08:12:56.500Z,61.54
2023-04-20T08:15:41.774Z,60.38
2023-04-20T08:18:26.551Z,58.32
2023-04-20T08:21:11.767Z,58.01
2023-04-20T08:23:56.751Z,56.34
2023-04-20T08:26:41.695Z,56.60
2023-04-20T08:29:26.641Z,56.25
2023-04-20T08:32:11.583Z,55.73
2023-04-20T08:34:56.797Z,55.96
2023-04-20T08:37:41.795Z,53.46
2023-04-20T08:40:26.849Z,54.73
2023-04-20T08:43:11.749Z,54.92
2023-04-20T08:45:56.808Z,54.52
2023-04-20T08:48:41.781Z,56.16
2023-04-20T08:51:26.817Z,54.58
2023-04-20T08:54:12.010Z,55.07
2023-04-20T08:56:57.035Z,55.02
2023-04-20T08:59:42.190Z,57.78
2023-04-20T09:02:27.358Z,61.08
2023-04-20T09:05:12.382Z,62.27
2023-04-20T09:07:57.152Z,61.62
2023-04-20T09:10:42.275Z,62.70
2023-04-20T09:13:27.359Z,63.16
2023-04-20T09:16:12.569Z,65.53
2023-04-20T09:18:57.591Z,63.93
2023-04-20T09:21:42.522Z,64.42
2023-04-20T09:24:27.620Z,65.75
2023-04-20T09:27:12.579Z,65.94
2023-04-20T09:29:57.787Z,64.76
2023-04-20T09:32:42.682Z,63.85
2023-04-20T09:35:27.579Z,63.85
2023-04-20T09:38:12.618Z,63.22
2023-04-20T09:40:57.463Z,63.51
2023-04-20T09:43:42.495Z,63.31
2023-04-20T09:46:27.493Z,64.61
2023-04-20T09:49:12.485Z,64.08
2023-04-20T09:51:57.398Z,63.84
2023-04-20T09:54:42.452Z,64.72
2023-04-20T09:57:27.591Z,65.15
2023-04-20T10:00:12.667Z,65.84
2023-04-20T10:02:57.862Z,66.22
2023-04-20T10:05:42.685Z,68.04
2023-04-20T10:08:27.900Z,69.28
2023-04-20T10:11:12.881Z,68.53
2023-04-20T10:13:57.948Z,70.08
2023-04-20T10:16:42.948Z,70.00
2023-04-20T10:19:27.766Z,67.94
2023-04-20T10:22:12.855Z,69.49
2023-04-20T10:24:57.727Z,69.96
2023-04-20T10:27:42.862Z,70.43
2023-04-20T10:30:27.765Z,71.59
2023-04-20T10:33:13.194Z,72.08
2023-04-20T10:35:58.327Z,74.54
2023-04-20T10:38:43.369Z,74.82
2023-04-20T10:41:28.469Z,75.03
2023-04-20T10:44:13.447Z,74.69
2023-04-20T10:46:58.471Z,74.59
2023-04-20T10:49:43.321Z,74.63
2023-04-20T10:52:28.312Z,74.85
2023-04-20T10:55:13.089Z,74.13
2023-04-20T10:57:58.237Z,72.75
2023-04-20T11:00:43.078Z,71.51
2023-04-20T11:03:28.227Z,70.99
2023-04-20T11:06:13.223Z,68.73
2023-04-20T11:08:58.072Z,70.32
2023-04-20T11:11:43.289Z,68.44
2023-04-20T11:14:28.196Z,67.95
2023-04-20T11:17:13.223Z,67.21
2023-04-20T11:19:58.699Z,66.74
2023-04-20T11:22:43.842Z,67.20
2023-04-20T11:25:28.782Z,67.29
2023-04-20T11:28:13.793Z,66.21
2023-04-20T11:30:58.840Z,67.33
2023-04-20T11:33:43.723Z,65.70
2023-04-20T11:36:28.716Z,65.74
2023-04-20T11:39:13.646Z,65.11
2023-04-20T11:41:58.676Z,65.92
2023-04-20T11:44:43.651Z,64.46
2023-04-20T11:47:28.677Z,65.19
2023-04-20T11:50:13.647Z,64.46
2023-04-20T11:52:58.537Z,65.35
2023-04-20T11:55:43.757Z,63.89
2023-04-20T11:58:28.573Z,63.76
2023-04-20T12:01:13.647Z,63.79
2023-04-20T12:03:58.860Z,67.17
2023-04-20T12:06:44.148Z,65.13
2023-04-20T12:09:29.123Z,66.33
2023-04-20T12:12:14.064Z,65.17
2023-04-20T12:14:59.185Z,67.64
2023-04-20T12:17:44.328Z,67.05
2023-04-20T12:20:29.285Z,67.03
2023-04-20T12:23:14.234Z,65.52
2023-04-20T12:25:59.229Z,63.72
2023-04-20T12:28:44.249Z,64.25
2023-04-20T12:31:29.385Z,64.39
2023-04-20T12:34:14.472Z,64.04
2023-04-20T12:36:59.346Z,64.43
2023-04-20T12:39:44.421Z,62.81
2023-04-20T12:42:29.398Z,61.98
2023-04-20T12:45:14.575Z,61.90
2023-04-20T12:48:00.601Z,63.46
2023-04-20T12:50:45.825Z,61.82
2023-04-20T12:53:30.716Z,62.28
2023-04-20T12:56:15.545Z,60.73
2023-04-20T12:59:00.725Z,59.68
2023-04-20T13:01:45.636Z,59.56
2023-04-20T13:04:30.783Z,60.00
2023-04-20T13:07:15.633Z,58.59
2023-04-20T13:10:00.826Z,59.49
2023-04-20T13:12:46.679Z,60.94
2023-04-20T13:15:38.959Z,61.01
2023-04-20T13:18:24.406Z,61.03
2023-04-20T13:21:09.549Z,59.81
2023-04-20T13:23:56.216Z,60.76
2023-04-20T13:26:41.525Z,59.57
2023-04-20T13:29:26.570Z,59.88
2023-04-20T13:32:11.515Z,58.58
2023-04-20T13:34:56.619Z,60.76
2023-04-20T13:37:41.663Z,62.24
2023-04-20T13:40:26.678Z,62.61
2023-04-20T13:43:11.628Z,61.57
2023-04-20T13:45:56.657Z,62.90
2023-04-20T13:48:41.586Z,61.93
2023-04-20T13:51:26.689Z,61.73
2023-04-20T13:54:11.585Z,63.01
2023-04-20T13:56:56.668Z,62.80
2023-04-20T13:59:41.668Z,62.94
2023-04-20T14:02:26.742Z,62.16
2023-04-20T14:05:11.759Z,60.76
2023-04-20T14:07:56.679Z,62.18
2023-04-20T14:10:41.683Z,61.46
2023-04-20T14:13:26.708Z,61.41
2023-04-20T14:16:11.875Z,61.94
2023-04-20T14:18:56.878Z,61.00
2023-04-20T14:21:41.876Z,61.78
2023-04-20T14:24:26.930Z,60.60
2023-04-20T14:27:11.933Z,61.04
2023-04-20T14:29:56.896Z,60.20
2023-04-20T14:32:41.937Z,60.58
2023-04-20T14:35:26.900Z,59.82
2023-04-20T14:38:11.956Z,59.78
2023-04-20T14:40:56.999Z,59.70
2023-04-20T14:43:42.202Z,60.17
2023-04-20T14:46:27.359Z,60.51
2023-04-20T14:49:12.338Z,60.89
2023-04-20T14:51:57.236Z,59.64
2023-04-20T14:54:42.345Z,61.09
2023-04-20T14:57:27.390Z,60.73
2023-04-20T15:00:12.396Z,60.53
2023-04-20T15:02:57.858Z,60.59
2023-04-20T15:05:43.151Z,60.92
2023-04-20T15:08:28.141Z,60.88
2023-04-20T15:11:13.051Z,60.01
2023-04-20T15:13:58.121Z,61.19
2023-04-20T15:16:43.085Z,60.91
2023-04-20T15:19:27.944Z,61.06
2023-04-20T15:22:13.074Z,60.04
2023-04-20T15:24:58.012Z,59.93
2023-04-20T15:27:43.068Z,58.61
2023-04-20T15:30:27.851Z,57.38
2023-04-20T15:33:12.932Z,57.92
2023-04-20T15:35:57.646Z,56.65
2023-04-20T15:38:42.595Z,57.89
2023-04-20T15:41:27.434Z,57.78
2023-04-20T15:44:12.542Z,56.66
2023-04-20T15:46:57.674Z,59.02
2023-04-20T15:49:42.688Z,59.38
2023-04-20T15:52:27.751Z,59.14
2023-04-20T15:55:12.628Z,58.94
2023-04-20T15:57:57.629Z,60.08
2023-04-20T16:00:42.578Z,59.71
2023-04-20T16:03:27.787Z,58.65
2023-04-20T16:06:12.525Z,57.87
2023-04-20T16:08:57.362Z,57.61
2023-04-20T16:11:42.549Z,56.40
2023-04-20T16:14:27.364Z,56.34
2023-04-20T16:17:12.497Z,56.69
2023-04-20T16:19:57.581Z,58.86
2023-04-20T16:22:42.695Z,59.52
2023-04-20T16:25:27.602Z,60.81
2023-04-20T16:28:12.641Z,60.47
2023-04-20T16:30:57.636Z,60.02
2023-04-20T16:33:43.045Z,59.73
2023-04-20T16:36:28.079Z,59.92
2023-04-20T16:39:13.134Z,61.21
2023-04-20T16:41:58.234Z,60.82
2023-04-20T16:44:43.393Z,60.04
2023-04-20T16:47:28.661Z,59.99
2023-04-20T16:50:13.620Z,60.79
2023-04-20T16:52:58.536Z,60.69
2023-04-20T16:55:43.495Z,60.40
2023-04-20T16:58:28.507Z,60.50
2023-04-20T17:01:13.567Z,61.84
2023-04-20T17:03:58.572Z,61.50
2023-04-20T17:06:43.478Z,62.89
2023-04-20T17:09:28.214Z,62.74
2023-04-20T17:12:13.413Z,64.43
2023-04-20T17:14:58.507Z,63.61
2023-04-20T17:17:43.458Z,64.22
2023-04-20T17:20:28.534Z,64.95
2023-04-20T17:23:13.469Z,64.59
2023-04-20T17:25:58.421Z,64.53
2023-04-20T17:28:43.452Z,66.01
2023-04-20T17:31:28.584Z,67.21
2023-04-20T17:34:13.584Z,68.33
2023-04-20T17:36:58.790Z,68.83
2023-04-20T17:39:43.846Z,68.75
2023-04-20T17:42:28.758Z,68.52
2023-04-20T17:45:13.926Z,68.29
2023-04-20T17:47:58.906Z,67.29
2023-04-20T17:50:43.787Z,68.31
2023-04-20T17:53:28.852Z,67.83
2023-04-20T17:56:13.843Z,67.59
2023-04-20T17:58:58.829Z,66.70
2023-04-20T18:01:43.782Z,67.41
2023-04-20T18:04:29.059Z,68.09
2023-04-20T18:07:14.309Z,68.09
2023-04-20T18:09:59.387Z,69.01
2023-04-20T18:12:44.296Z,69.27
2023-04-20T18:15:29.466Z,68.67
2023-04-20T18:18:14.224Z,68.48
2023-04-20T18:20:59.331Z,68.84
2023-04-20T18:23:44.404Z,69.22
2023-04-20T18:26:29.267Z,69.10
2023-04-20T18:29:14.441Z,68.99
2023-04-20T18:31:59.516Z,67.83
2023-04-20T18:34:44.557Z,67.92
2023-04-20T18:37:29.520Z,67.28
2023-04-20T18:40:16.215Z,66.80
2023-04-20T18:43:01.784Z,66.17
2023-04-20T18:45:46.721Z,66.68
2023-04-20T18:48:31.825Z,65.96
2023-04-20T18:51:16.661Z,65.79
2023-04-20T18:54:01.680Z,66.21
2023-04-20T18:56:46.583Z,66.73
2023-04-20T18:59:31.696Z,66.48
2023-04-20T19:02:16.849Z,66.61
2023-04-20T19:05:01.582Z,65.93
2023-04-20T19:07:46.741Z,65.73
2023-04-20T19:10:31.575Z,66.31
2023-04-20T19:13:16.768Z,66.08
2023-04-20T19:16:01.714Z,66.42
2023-04-20T19:18:46.658Z,66.83
2023-04-20T19:21:31.806Z,66.09
2023-04-20T19:24:17.049Z,66.62
2023-04-20T19:27:02.431Z,66.12
2023-04-20T19:29:47.261Z,66.26
2023-04-20T19:32:32.458Z,66.58
2023-04-20T19:35:17.408Z,66.42
2023-04-20T19:38:02.515Z,66.22
2023-04-20T19:40:47.435Z,65.46
2023-04-20T19:43:32.552Z,65.24
2023-04-20T19:46:17.611Z,64.75
2023-04-20T19:49:02.543Z,64.88
2023-04-20T19:51:47.716Z,64.82
2023-04-20T19:54:32.522Z,64.48
2023-04-20T19:57:17.528Z,65.72
2023-04-20T20:00:02.476Z,66.47
2023-04-20T20:02:47.707Z,66.48
2023-04-20T20:05:32.579Z,66.93
2023-04-20T20:08:17.605Z,67.61
2023-04-20T20:11:02.630Z,68.04
2023-04-20T20:13:47.641Z,68.70
2023-04-20T20:16:32.925Z,68.79
2023-04-20T20:19:18.045Z,69.01
2023-04-20T20:22:03.334Z,68.57
2023-04-20T20:24:48.258Z,68.04
2023-04-20T20:27:33.342Z,67.92
2023-04-20T20:30:18.447Z,67.13
2023-04-20T20:33:03.418Z,66.15
2023-04-20T20:35:48.497Z,66.28
2023-04-20T20:38:33.392Z,66.70
2023-04-20T20:41:18.402Z,66.82
2023-04-20T20:44:03.442Z,67.25
2023-04-20T20:46:48.412Z,66.69
2023-04-20T20:49:33.352Z,66.32
2023-04-20T20:52:18.232Z,66.89
2023-04-20T20:55:03.388Z,66.73
2023-04-20T20:57:48.323Z,66.86
2023-04-20T21:00:33.482Z,66.04
2023-04-20T21:03:18.446Z,66.74
2023-04-20T21:06:03.471Z,66.82
2023-04-20T21:08:48.377Z,66.92
2023-04-20T21:11:33.479Z,66.32
2023-04-20T21:14:18.685Z,65.51
2023-04-20T21:17:03.700Z,65.94
2023-04-20T21:19:48.749Z,65.97
2023-04-20T21:22:33.535Z,65.46
2023-04-20T21:25:18.701Z,65.52
2023-04-20T21:28:03.580Z,64.96
2023-04-20T21:30:48.588Z,65.06
2023-04-20T21:33:33.615Z,65.01
2023-04-20T21:36:18.491Z,64.81
2023-04-20T21:39:03.687Z,64.63
2023-04-20T21:41:48.654Z,64.52
2023-04-20T21:44:33.754Z,65.54
2023-04-20T21:47:18.758Z,65.72
2023-04-20T21:50:03.672Z,64.68
2023-04-20T21:52:48.672Z,65.09
2023-04-20T21:55:33.750Z,64.84
2023-04-20T21:58:18.800Z,64.46
2023-04-20T22:01:03.788Z,63.52
2023-04-20T22:03:49.057Z,64.70
2023-04-20T22:06:33.806Z,65.42
2023-04-20T22:09:19.076Z,65.65
2023-04-20T22:12:03.810Z,65.92
2023-04-20T22:14:48.832Z,66.38
2023-04-20T22:17:33.845Z,66.24
2023-04-20T22:20:18.916Z,65.94
2023-04-20T22:23:04.020Z,65.75
2023-04-20T22:25:48.882Z,65.65
2023-04-20T22:28:34.068Z,67.06
2023-04-20T22:31:18.999Z,68.22
2023-04-20T22:34:04.078Z,67.64
2023-04-20T22:36:49.094Z,67.05
2023-04-20T22:39:34.216Z,67.54
2023-04-20T22:42:19.186Z,66.60
2023-04-20T22:45:04.138Z,66.70
2023-04-20T22:47:49.397Z,66.25
2023-04-20T22:50:34.190Z,66.37
2023-04-20T22:53:19.243Z,65.69
2023-04-20T22:56:04.106Z,65.53
2023-04-20T22:58:49.146Z,65.74
2023-04-20T23:01:34.041Z,65.07
2023-04-20T23:04:19.162Z,65.56
2023-04-20T23:07:04.191Z,66.07
2023-04-20T23:09:49.237Z,66.08
2023-04-20T23:12:34.418Z,67.43
2023-04-20T23:15:19.306Z,67.13
2023-04-20T23:18:04.393Z,67.40
2023-04-20T23:20:49.232Z,67.45
2023-04-20T23:23:34.293Z,68.65
2023-04-20T23:26:19.366Z,68.33
2023-04-20T23:29:04.359Z,67.95
2023-04-20T23:31:49.535Z,68.46
2023-04-20T23:34:34.376Z,68.46
2023-04-20T23:37:19.385Z,68.27
2023-04-20T23:40:04.372Z,68.35
2023-04-20T23:42:49.393Z,67.55
2023-04-20T23:45:34.377Z,66.99
2023-04-20T23:48:19.304Z,66.63
2023-04-20T23:51:04.328Z,66.72
2023-04-20T23:53:49.289Z,66.04
2023-04-20T23:56:34.328Z,65.78
2023-04-20T23:59:19.423Z,64.99
